Terminal Aerodrome Forecast
Issued by NWS

Home | Current Version | Previous Version | Text Only | Print | Product List | Glossary On
Versions: 1 2 3 4 5 6 7 8 9 10 11 12 13 14 15
550
FTUS44 KBMX 162341
TAFEET
TAF
KEET 162341Z 1700/1724 14004KT P6SM BKN250
     FM170400 16004KT P6SM OVC030
     FM170600 17004KT P6SM OVC010
     FM171200 18003KT 5SM BR OVC007
     FM171800 20008KT P6SM BKN025 BKN080=

USA.gov is the U.S. government's official web portal to all federal, state and local government web resources and services.